Tobias Bolanos International, Costa Rica

10:40 AM CST on July 31, 2015 (GMT -0600)
Tobias Bolanos International | | Change Station
CLOSE
Current Station
Airport
Location: Tobias Bolanos Internatio,
Elevation: 3261 ft
Nearby Weather Stations

Elev 3261 ft 9.96 °N, 84.14 °W | Updated 40 minutes ago

Mostly Cloudy
Mostly Cloudy
75 °F
Feels Like 75 °F
N
18
Wind Variable Wind from ENE

Today
High -- | Low -- °F
--% Chance of Precip.
Yesterday
High -- | Low -- °F
Precip. -- in
5:26 AM 5:59 PM
Full, 100% visible
Pressure 30.06 in
Visibility 6.2 miles
Clouds Scattered Clouds 5300 ft
Mostly Cloudy 10000 ft
Dew Point 59 °F
Humidity 57%
Rainfall 0.00 in
Snow Depth Not available.
UV 8 out of 12
Pollen Not available.
Air Quality Not available.
Flu Activity Not available.
METAR MRPV 311600Z 07016KT 9999 SCT053 BKN100 24/15 A3006 NOSIG

More Conditions Fewer Conditions

Pressure 30.06 in
Visibility 6.2 miles
Clouds Scattered Clouds 5300 ft
Mostly Cloudy 10000 ft
Dew Point 59 °F
Humidity 57%
Rainfall 0.00 in
Snow Depth Not available.
UV 8 out of 12
Pollen Not available.
Air Quality Not available.
Flu Activity Not available.
METAR MRPV 311600Z 07016KT 9999 SCT053 BKN100 24/15 A3006 NOSIG

More Conditions Fewer Conditions

10-Day Weather Forecast

×

Almanac

Astronomy

Jul. 31, 2015 Rise Set
Actual Time
Civil Twilight
Nautical Twilight
Astronomical Twilight
Moon
Length of Visible Light
Length of Day
Tomorrow will be .
, % of the Moon is Illuminated

Today's Extremes

Country Highs Country Lows

Community

WunderPhotos

Upload Photos

1,842,693 photos uploaded!

WunderBlogs® & News

Nearby

Air Quality

  Air Quality AQ Index Pollutant
Not available.

Snow Depth

Station Depth Elevation

Earthquake Activity

City Distance Mag. Time & Date
Minimum magnitude displayed is 2.5.

Coastal Water Temperatures

Place Temperature

Stations

Nearby Weather Stations

Station Location Temp. Windchill Dew Point Humidity Wind Precip. Elev Updated Type